Other Surface Observations
Issued by NWS Missoula, MT

Home | Current Version | Previous Version | Text Only | Print | Product List | Glossary On
Versions: 1 2 3 4 5 6 7 8 9 10 11 12 13 14 15 16 17 18 19 20 21 22 23 24 25 26 27 28 29 30 31 32 33 34 35 36 37 38 39 40 41 42 43 44 45 46 47 48 49 50
000
SXUS55 KMSO 031543
OSOMSO
MONTANA AWOS SUMMARY
NATIONAL WEATHER SERVICE MISSOULA MT
942 AM MDT FRI JUL 3 2015

Montana AWOS Reports

LAUREL      |K6S8 031535Z AUTO 00000KT 10SM 23/11 A3003 RMK AO1 T02280111
TWIN BRIDGES|K7S1 031535Z AUTO 19006KT 25SM 21/08 A3008 RMK AO1 T02110083
ROUNDUP     |KRPX 031535Z AUTO 00000KT 25SM 23/11 A2996 RMK AO1 T02280111
MALTA       |KM75 031535Z AUTO 00000KT 10SM 24/16 A2995 RMK AO1 T02390161




USA.gov is the U.S. government's official web portal to all federal, state and local government web resources and services.